createdAt,value
2019-03-18T00:01:43.163Z,99.90
2019-03-18T00:04:10.245Z,99.90
2019-03-18T00:06:37.077Z,99.90
2019-03-18T00:09:05.586Z,99.90
2019-03-18T00:11:32.756Z,99.90
2019-03-18T00:14:00.774Z,99.90
2019-03-18T00:16:27.634Z,99.90
2019-03-18T00:18:55.447Z,99.90
2019-03-18T00:21:22.401Z,99.90
2019-03-18T00:23:49.337Z,99.90
2019-03-18T00:26:16.348Z,99.90
2019-03-18T00:28:43.317Z,99.90
2019-03-18T00:31:10.044Z,99.90
2019-03-18T00:33:37.216Z,99.90
2019-03-18T00:36:04.057Z,99.90
2019-03-18T00:38:30.979Z,99.90
2019-03-18T00:40:58.041Z,99.90
2019-03-18T00:43:24.830Z,99.90
2019-03-18T00:45:52.058Z,99.90
2019-03-18T00:48:19.002Z,99.90
2019-03-18T00:50:48.277Z,99.90
2019-03-18T00:53:14.995Z,99.90
2019-03-18T00:55:41.738Z,99.90
2019-03-18T00:58:08.947Z,99.90
2019-03-18T01:00:35.780Z,99.90
2019-03-18T01:03:02.867Z,99.90
2019-03-18T01:05:30.921Z,99.90
2019-03-18T01:08:00.307Z,99.90
2019-03-18T01:10:27.041Z,99.90
2019-03-18T01:12:53.851Z,99.90
2019-03-18T01:15:27.857Z,99.90
2019-03-18T01:17:51.459Z,99.90
2019-03-18T01:20:18.411Z,99.90
2019-03-18T01:22:45.801Z,99.90
2019-03-18T01:25:13.083Z,99.90
2019-03-18T01:27:40.223Z,99.90
2019-03-18T01:30:12.327Z,99.90
2019-03-18T01:32:39.279Z,99.90
2019-03-18T01:35:08.325Z,99.90
2019-03-18T01:37:35.347Z,99.90
2019-03-18T01:40:04.876Z,99.90
2019-03-18T01:42:31.850Z,99.90
2019-03-18T01:44:58.669Z,99.90
2019-03-18T01:47:25.738Z,99.90
2019-03-18T01:49:52.679Z,99.90
2019-03-18T01:52:19.398Z,99.90
2019-03-18T01:54:46.115Z,99.90
2019-03-18T01:57:13.247Z,99.90
2019-03-18T01:59:40.241Z,99.90
2019-03-18T02:02:07.167Z,99.90
2019-03-18T02:04:35.099Z,99.90
2019-03-18T02:07:02.164Z,99.90
2019-03-18T02:09:29.926Z,99.90
2019-03-18T02:11:56.879Z,99.90
2019-03-18T02:14:25.473Z,99.90
2019-03-18T02:16:52.407Z,99.90
2019-03-18T02:19:19.405Z,99.90
2019-03-18T02:21:46.195Z,99.90
2019-03-18T02:24:13.151Z,99.90
2019-03-18T02:26:40.229Z,99.90
2019-03-18T02:29:06.926Z,99.90
2019-03-18T02:31:35.474Z,99.90
2019-03-18T02:34:02.663Z,99.90
2019-03-18T02:36:29.617Z,99.90
2019-03-18T02:38:56.887Z,99.90
2019-03-18T02:41:23.763Z,99.90
2019-03-18T02:43:50.754Z,99.90
2019-03-18T02:46:17.625Z,99.90
2019-03-18T02:48:44.413Z,99.90
2019-03-18T02:51:11.350Z,99.90
2019-03-18T02:53:38.601Z,99.90
2019-03-18T02:56:05.528Z,99.90
2019-03-18T02:58:32.227Z,99.90
2019-03-18T03:00:59.322Z,99.90
2019-03-18T03:03:26.222Z,99.90
2019-03-18T03:05:53.047Z,99.90
2019-03-18T03:08:20.332Z,99.90
2019-03-18T03:10:47.263Z,99.90
2019-03-18T03:13:13.996Z,99.90
2019-03-18T03:15:42.903Z,99.90
2019-03-18T03:18:09.842Z,99.90
2019-03-18T03:20:38.134Z,99.90
2019-03-18T03:23:05.635Z,99.90
2019-03-18T03:25:32.574Z,99.90
2019-03-18T03:27:59.531Z,99.90
2019-03-18T03:30:26.768Z,99.90
2019-03-18T03:32:55.285Z,99.90
2019-03-18T03:35:22.057Z,99.90
2019-03-18T03:37:49.388Z,99.90
2019-03-18T03:40:16.120Z,99.90
2019-03-18T03:42:43.189Z,99.90
2019-03-18T03:45:12.871Z,99.90
2019-03-18T03:47:40.028Z,99.90
2019-03-18T03:50:09.430Z,99.90
2019-03-18T03:52:36.391Z,99.90
2019-03-18T03:55:05.937Z,99.90
2019-03-18T03:57:32.843Z,99.90
2019-03-18T03:59:59.712Z,99.90
2019-03-18T04:02:27.124Z,99.90
2019-03-18T04:04:54.174Z,99.90
2019-03-18T04:07:21.120Z,99.90
2019-03-18T04:09:47.974Z,99.90
2019-03-18T04:12:14.785Z,99.90
2019-03-18T04:14:41.733Z,99.90
2019-03-18T04:17:08.583Z,99.90
2019-03-18T04:19:36.017Z,99.90
2019-03-18T04:22:03.564Z,99.90
2019-03-18T04:24:30.795Z,99.90
2019-03-18T04:26:58.104Z,99.90
2019-03-18T04:29:24.870Z,99.90
2019-03-18T04:31:51.881Z,99.90
2019-03-18T04:34:18.719Z,99.90
2019-03-18T04:36:45.698Z,99.90
2019-03-18T04:39:12.540Z,99.90
2019-03-18T04:41:39.342Z,99.90
2019-03-18T04:44:06.410Z,99.90
2019-03-18T04:46:34.147Z,99.90
2019-03-18T04:49:00.873Z,99.90
2019-03-18T04:51:27.784Z,99.90
2019-03-18T04:53:54.616Z,99.90
2019-03-18T04:56:21.592Z,99.90
2019-03-18T04:58:48.513Z,99.90
2019-03-18T05:01:15.542Z,99.90
2019-03-18T05:03:42.652Z,99.90
2019-03-18T05:06:10.521Z,99.90
2019-03-18T05:08:37.560Z,99.90
2019-03-18T05:11:04.547Z,99.90
2019-03-18T05:13:31.363Z,99.90
2019-03-18T05:15:58.410Z,99.90
2019-03-18T05:18:25.494Z,99.90
2019-03-18T05:20:53.255Z,99.90
2019-03-18T05:23:20.142Z,99.90
2019-03-18T05:25:46.892Z,99.90
2019-03-18T05:28:15.414Z,99.90
2019-03-18T05:30:42.207Z,99.90
2019-03-18T05:33:11.163Z,99.90
2019-03-18T05:35:38.151Z,99.90
2019-03-18T05:38:06.945Z,99.90
2019-03-18T05:40:35.470Z,99.90
2019-03-18T05:43:02.498Z,99.90
2019-03-18T05:45:29.533Z,99.90
2019-03-18T05:47:56.401Z,99.90
2019-03-18T05:50:23.348Z,99.90
2019-03-18T05:52:50.266Z,99.90
2019-03-18T05:55:18.036Z,99.90
2019-03-18T05:57:46.363Z,99.90
2019-03-18T06:00:13.544Z,99.90
2019-03-18T06:02:40.716Z,99.90
2019-03-18T06:05:08.748Z,99.90
2019-03-18T06:07:35.698Z,99.90
2019-03-18T06:10:06.260Z,99.90
2019-03-18T06:12:33.178Z,99.90
2019-03-18T06:15:00.450Z,99.90
2019-03-18T06:17:27.276Z,99.90
2019-03-18T06:19:55.062Z,99.90
2019-03-18T06:22:22.782Z,99.90
2019-03-18T06:24:49.715Z,99.90
2019-03-18T06:27:16.918Z,99.90
2019-03-18T06:29:43.748Z,99.90
2019-03-18T06:32:10.860Z,99.90
2019-03-18T06:34:37.987Z,99.90
2019-03-18T06:37:04.978Z,99.90
2019-03-18T06:39:31.905Z,99.90
2019-03-18T06:41:58.632Z,99.90
2019-03-18T06:44:26.038Z,99.90
2019-03-18T06:46:53.195Z,99.90
2019-03-18T06:49:21.759Z,99.90
2019-03-18T06:51:48.861Z,99.90
2019-03-18T06:54:15.813Z,99.90
2019-03-18T06:56:42.798Z,99.90
2019-03-18T06:59:09.944Z,99.90
2019-03-18T07:01:36.672Z,99.90
2019-03-18T07:04:05.320Z,99.90
2019-03-18T07:06:32.200Z,99.90
2019-03-18T07:09:00.658Z,99.90
2019-03-18T07:11:27.360Z,99.90
2019-03-18T07:13:55.806Z,99.90
2019-03-18T07:16:22.700Z,99.90
2019-03-18T07:18:49.951Z,99.90
2019-03-18T07:21:16.888Z,99.90
2019-03-18T07:23:44.070Z,99.90
2019-03-18T07:26:10.933Z,99.90
2019-03-18T07:28:37.680Z,99.90
2019-03-18T07:31:04.504Z,99.90
2019-03-18T07:33:33.039Z,99.90
2019-03-18T07:35:59.828Z,99.90
2019-03-18T07:38:26.916Z,99.90
2019-03-18T07:40:53.751Z,99.90
2019-03-18T07:43:20.478Z,99.90
2019-03-18T07:45:47.518Z,99.90
2019-03-18T07:48:14.684Z,99.90
2019-03-18T07:50:41.747Z,99.90
2019-03-18T07:53:09.370Z,99.90
2019-03-18T07:55:36.122Z,99.90
2019-03-18T07:58:03.261Z,99.90
2019-03-18T08:00:30.199Z,99.90
2019-03-18T08:02:57.127Z,99.90
2019-03-18T08:05:23.874Z,99.90
2019-03-18T08:07:50.583Z,99.90
2019-03-18T08:10:17.509Z,99.90
2019-03-18T08:12:44.395Z,99.90
2019-03-18T08:15:12.611Z,99.90
2019-03-18T08:17:39.529Z,99.90
2019-03-18T08:20:10.351Z,99.90
2019-03-18T08:22:38.519Z,99.90
2019-03-18T08:25:09.250Z,99.90
2019-03-18T08:27:36.829Z,99.90
2019-03-18T08:30:12.505Z,99.90
2019-03-18T08:32:39.620Z,99.90
2019-03-18T08:35:06.924Z,99.90
2019-03-18T08:37:35.358Z,99.90
2019-03-18T08:40:04.622Z,99.90
2019-03-18T08:42:31.497Z,99.90
2019-03-18T08:44:59.268Z,99.90
2019-03-18T08:47:26.295Z,99.90
2019-03-18T08:49:53.892Z,99.90
2019-03-18T08:52:20.648Z,99.90
2019-03-18T08:54:48.604Z,99.80
2019-03-18T08:57:15.612Z,99.40
2019-03-18T08:59:44.482Z,98.70
2019-03-18T09:02:11.465Z,97.40
2019-03-18T09:04:38.245Z,97.10
2019-03-18T09:07:06.881Z,97.50
2019-03-18T09:09:35.481Z,97.40
2019-03-18T09:12:02.409Z,98.10
2019-03-18T09:14:29.368Z,97.80
2019-03-18T09:16:56.145Z,97.50
2019-03-18T09:19:23.163Z,97.70
2019-03-18T09:21:50.094Z,98.40
2019-03-18T09:24:17.011Z,99.00
2019-03-18T09:26:45.710Z,99.50
2019-03-18T09:29:12.537Z,99.90
2019-03-18T09:31:39.363Z,99.90
2019-03-18T09:34:06.228Z,99.90
2019-03-18T09:36:32.915Z,99.90
2019-03-18T09:39:00.523Z,99.90
2019-03-18T09:41:27.366Z,99.90
2019-03-18T09:43:55.502Z,99.90
2019-03-18T09:46:22.906Z,99.90
2019-03-18T09:48:49.670Z,99.90
2019-03-18T09:51:16.563Z,99.90
2019-03-18T09:53:43.502Z,99.90
2019-03-18T09:56:10.675Z,99.90
2019-03-18T09:58:37.521Z,99.90
2019-03-18T10:01:05.603Z,99.90
2019-03-18T10:03:32.580Z,99.90
2019-03-18T10:05:59.735Z,99.90
2019-03-18T10:08:26.655Z,99.90
2019-03-18T10:10:53.409Z,99.90
2019-03-18T10:13:21.013Z,99.90
2019-03-18T10:15:47.840Z,99.90
2019-03-18T10:18:14.870Z,99.90
2019-03-18T10:20:41.845Z,99.90
2019-03-18T10:23:08.686Z,99.90
2019-03-18T10:25:35.807Z,99.90
2019-03-18T10:28:02.755Z,99.90
2019-03-18T10:30:29.785Z,99.90
2019-03-18T10:32:58.355Z,99.90
2019-03-18T10:35:25.286Z,99.90
2019-03-18T10:37:52.373Z,99.90
2019-03-18T10:40:19.701Z,99.90
2019-03-18T10:42:48.678Z,99.90
2019-03-18T10:45:15.674Z,99.90
2019-03-18T10:47:42.686Z,99.90
2019-03-18T10:50:12.729Z,99.90
2019-03-18T10:52:39.884Z,99.90
2019-03-18T10:55:08.415Z,99.90
2019-03-18T10:57:35.549Z,99.80
2019-03-18T11:00:16.881Z,99.90
2019-03-18T11:02:45.687Z,99.80
2019-03-18T11:05:13.479Z,99.30
2019-03-18T11:07:40.519Z,98.40
2019-03-18T11:10:12.591Z,98.50
2019-03-18T11:12:39.336Z,97.90
2019-03-18T11:15:11.422Z,97.40
2019-03-18T11:17:38.236Z,97.60
2019-03-18T11:20:08.933Z,97.40
2019-03-18T11:22:35.635Z,97.60
2019-03-18T11:25:05.385Z,97.50
2019-03-18T11:27:32.239Z,98.60
2019-03-18T11:29:59.629Z,99.70
2019-03-18T11:32:26.556Z,99.90
2019-03-18T11:34:55.091Z,99.90
2019-03-18T11:37:22.190Z,99.90
2019-03-18T11:39:49.262Z,99.90
2019-03-18T11:42:16.585Z,99.90
2019-03-18T11:44:45.379Z,99.90
2019-03-18T11:47:12.368Z,99.90
2019-03-18T11:49:40.051Z,99.90
2019-03-18T11:52:06.947Z,99.90
2019-03-18T11:54:35.657Z,99.00
2019-03-18T11:57:03.079Z,96.50
2019-03-18T11:59:30.206Z,94.20
2019-03-18T12:01:57.026Z,94.00
2019-03-18T12:04:25.817Z,92.60
2019-03-18T12:06:52.841Z,92.70
2019-03-18T12:09:19.682Z,91.50
2019-03-18T12:11:46.862Z,92.20
2019-03-18T12:14:13.778Z,90.20
2019-03-18T12:16:40.688Z,89.20
2019-03-18T12:19:07.774Z,87.50
2019-03-18T12:21:35.117Z,87.10
2019-03-18T12:24:03.805Z,90.20
2019-03-18T12:26:30.747Z,90.70
2019-03-18T12:28:57.807Z,90.80
2019-03-18T12:31:25.393Z,90.90
2019-03-18T12:33:52.143Z,92.00
2019-03-18T12:36:19.120Z,93.40
2019-03-18T12:38:46.059Z,94.60
2019-03-18T12:41:13.525Z,95.40
2019-03-18T12:43:40.208Z,96.40
2019-03-18T12:46:07.080Z,95.50
2019-03-18T12:48:35.676Z,94.80
2019-03-18T12:51:03.110Z,94.00
2019-03-18T12:53:30.274Z,90.90
2019-03-18T12:55:57.125Z,89.00
2019-03-18T12:58:23.965Z,88.30
2019-03-18T13:00:51.328Z,84.80
2019-03-18T13:03:18.206Z,87.00
2019-03-18T13:05:45.591Z,87.10
2019-03-18T13:08:12.340Z,88.50
2019-03-18T13:10:39.043Z,87.10
2019-03-18T13:13:06.014Z,90.30
2019-03-18T13:15:34.779Z,89.60
2019-03-18T13:18:01.881Z,89.30
2019-03-18T13:20:28.969Z,92.00
2019-03-18T13:22:56.164Z,93.60
2019-03-18T13:25:23.453Z,92.70
2019-03-18T13:27:50.587Z,90.40
2019-03-18T13:30:23.986Z,90.30
2019-03-18T13:32:51.516Z,91.50
2019-03-18T13:35:19.614Z,92.40
2019-03-18T13:37:46.452Z,93.10
2019-03-18T13:40:14.489Z,93.90
2019-03-18T13:42:43.323Z,94.30
2019-03-18T13:45:12.612Z,94.00
2019-03-18T13:47:39.969Z,94.50
2019-03-18T13:50:09.602Z,94.90
2019-03-18T13:52:36.447Z,94.60
2019-03-18T13:55:06.803Z,95.80
2019-03-18T13:57:33.806Z,96.40
2019-03-18T14:00:01.024Z,97.30
2019-03-18T14:02:27.718Z,97.90
2019-03-18T14:04:55.156Z,98.20
2019-03-18T14:07:22.512Z,98.50
2019-03-18T14:09:50.805Z,98.80
2019-03-18T14:12:17.990Z,99.70
2019-03-18T14:14:44.888Z,99.90
2019-03-18T14:17:12.278Z,99.90
2019-03-18T14:19:38.994Z,99.90
2019-03-18T14:22:05.792Z,99.90
2019-03-18T14:24:33.521Z,99.90
2019-03-18T14:27:00.304Z,99.90
2019-03-18T14:29:27.217Z,99.90
2019-03-18T14:31:55.444Z,99.90
2019-03-18T14:34:22.161Z,99.90
2019-03-18T14:36:49.915Z,99.90
2019-03-18T14:39:16.799Z,99.90
2019-03-18T14:41:43.440Z,99.90
2019-03-18T14:44:10.161Z,99.90
2019-03-18T14:46:36.924Z,99.90
2019-03-18T14:49:03.689Z,99.90
2019-03-18T14:51:31.487Z,99.70
2019-03-18T14:53:58.339Z,99.60
2019-03-18T14:56:26.115Z,99.60
2019-03-18T14:58:53.023Z,99.30
2019-03-18T15:01:19.769Z,98.30
2019-03-18T15:03:46.454Z,98.00
2019-03-18T15:06:13.206Z,97.80
2019-03-18T15:08:40.000Z,98.00
2019-03-18T15:11:06.617Z,97.60
2019-03-18T15:13:33.245Z,98.20
2019-03-18T15:15:59.908Z,97.70
2019-03-18T15:18:26.641Z,97.00
2019-03-18T15:20:55.329Z,96.00
2019-03-18T15:23:22.189Z,95.90
2019-03-18T15:25:48.999Z,95.50
2019-03-18T15:28:15.663Z,95.50
2019-03-18T15:30:42.483Z,96.00
2019-03-18T15:33:09.226Z,96.30
2019-03-18T15:35:36.049Z,96.70
2019-03-18T15:38:02.954Z,96.60
2019-03-18T15:40:29.581Z,95.70
2019-03-18T15:42:58.158Z,95.00
2019-03-18T15:45:25.341Z,95.00
2019-03-18T15:47:51.999Z,94.70
2019-03-18T15:50:25.665Z,94.20
2019-03-18T15:52:52.369Z,93.80
2019-03-18T15:55:19.228Z,94.10
2019-03-18T15:57:47.169Z,93.90
2019-03-18T16:00:24.221Z,93.60
2019-03-18T16:02:51.161Z,94.10
2019-03-18T16:05:20.364Z,94.30
2019-03-18T16:07:47.322Z,94.20
2019-03-18T16:10:15.711Z,94.20
2019-03-18T16:12:42.820Z,93.90
2019-03-18T16:15:12.559Z,93.90
2019-03-18T16:17:41.461Z,94.00
2019-03-18T16:20:22.210Z,94.10
2019-03-18T16:22:49.129Z,94.80
2019-03-18T16:25:16.011Z,94.80
2019-03-18T16:27:42.685Z,94.80
2019-03-18T16:30:12.455Z,94.90
2019-03-18T16:32:39.184Z,94.80
2019-03-18T16:35:08.016Z,94.80
2019-03-18T16:37:34.685Z,94.80
2019-03-18T16:40:01.712Z,94.90
2019-03-18T16:42:29.831Z,95.20
2019-03-18T16:44:56.585Z,95.10
2019-03-18T16:47:23.319Z,95.40
2019-03-18T16:49:53.653Z,95.70
2019-03-18T16:52:20.799Z,95.20
2019-03-18T16:54:47.562Z,94.50
2019-03-18T16:57:14.171Z,94.50
2019-03-18T16:59:40.817Z,94.60
2019-03-18T17:02:07.669Z,94.40
2019-03-18T17:04:34.399Z,94.40
2019-03-18T17:07:01.248Z,94.90
2019-03-18T17:09:29.846Z,95.40
2019-03-18T17:11:57.189Z,95.40
2019-03-18T17:14:23.845Z,95.30
2019-03-18T17:16:52.794Z,95.20
2019-03-18T17:19:19.561Z,95.10
2019-03-18T17:21:46.317Z,95.20
2019-03-18T17:24:13.156Z,95.50
2019-03-18T17:26:39.792Z,95.70
2019-03-18T17:29:06.429Z,96.00
2019-03-18T17:31:33.417Z,95.90
2019-03-18T17:34:02.037Z,96.30
2019-03-18T17:36:30.118Z,96.30
2019-03-18T17:38:57.223Z,96.30
2019-03-18T17:41:23.957Z,96.50
2019-03-18T17:43:51.209Z,96.70
2019-03-18T17:46:18.081Z,96.70
2019-03-18T17:48:44.722Z,96.90
2019-03-18T17:51:12.520Z,96.90
2019-03-18T17:53:39.140Z,97.20
2019-03-18T17:56:06.153Z,97.30
2019-03-18T17:58:32.949Z,97.60
2019-03-18T18:01:03.592Z,97.40
2019-03-18T18:03:30.230Z,97.80
2019-03-18T18:05:57.124Z,97.80
2019-03-18T18:08:23.783Z,97.70
2019-03-18T18:10:50.629Z,97.60
2019-03-18T18:13:17.404Z,97.60
2019-03-18T18:15:44.326Z,97.70
2019-03-18T18:18:11.216Z,97.80
2019-03-18T18:20:38.052Z,98.00
2019-03-18T18:23:13.752Z,97.70
2019-03-18T18:25:33.679Z,98.00
2019-03-18T18:28:01.491Z,98.30
2019-03-18T18:30:28.268Z,98.30
2019-03-18T18:32:55.088Z,98.30
2019-03-18T18:35:21.897Z,98.40
2019-03-18T18:37:48.724Z,98.40
2019-03-18T18:40:16.963Z,98.50
2019-03-18T18:42:44.305Z,98.70
2019-03-18T18:45:11.822Z,98.90
2019-03-18T18:47:38.749Z,99.00
2019-03-18T18:50:07.736Z,99.00
2019-03-18T18:52:34.765Z,98.90
2019-03-18T18:55:01.960Z,98.80
2019-03-18T18:57:28.965Z,98.90
2019-03-18T18:59:55.761Z,98.80
2019-03-18T19:02:22.523Z,98.90
2019-03-18T19:04:49.299Z,99.00
2019-03-18T19:07:19.257Z,99.10
2019-03-18T19:09:46.887Z,99.20
2019-03-18T19:12:13.923Z,99.40
2019-03-18T19:14:40.623Z,99.40
2019-03-18T19:17:07.370Z,99.30
2019-03-18T19:19:34.125Z,99.00
2019-03-18T19:22:01.189Z,98.90
2019-03-18T19:24:27.827Z,99.30
2019-03-18T19:26:54.482Z,99.60
2019-03-18T19:29:21.071Z,99.80
2019-03-18T19:31:48.113Z,99.80
2019-03-18T19:34:15.033Z,99.60
2019-03-18T19:36:41.601Z,99.40
2019-03-18T19:39:08.151Z,99.50
2019-03-18T19:41:34.929Z,99.80
2019-03-18T19:44:01.696Z,99.90
2019-03-18T19:46:28.777Z,99.90
2019-03-18T19:48:55.525Z,99.90
2019-03-18T19:51:22.396Z,99.90
2019-03-18T19:53:49.672Z,99.90
2019-03-18T19:56:16.575Z,99.90
2019-03-18T19:58:43.447Z,99.60
2019-03-18T20:01:12.225Z,99.60
2019-03-18T20:03:39.355Z,99.90
2019-03-18T20:06:06.298Z,99.90
2019-03-18T20:08:33.160Z,99.90
2019-03-18T20:10:59.999Z,99.90
2019-03-18T20:13:26.905Z,99.90
2019-03-18T20:15:53.650Z,99.90
2019-03-18T20:18:20.460Z,99.90
2019-03-18T20:20:47.195Z,99.90
2019-03-18T20:23:13.948Z,99.90
2019-03-18T20:25:40.842Z,99.90
2019-03-18T20:28:07.618Z,99.90
2019-03-18T20:30:34.285Z,99.90
2019-03-18T20:33:01.531Z,99.90
2019-03-18T20:35:28.185Z,99.90
2019-03-18T20:37:54.952Z,99.90
2019-03-18T20:40:21.928Z,99.90
2019-03-18T20:42:49.012Z,99.90
2019-03-18T20:45:18.420Z,99.90
2019-03-18T20:47:46.283Z,99.90
2019-03-18T20:50:15.917Z,99.90
2019-03-18T20:52:43.549Z,99.90
2019-03-18T20:55:11.541Z,99.90
2019-03-18T20:57:38.626Z,99.90
2019-03-18T21:00:16.603Z,99.90
2019-03-18T21:02:44.129Z,99.90
2019-03-18T21:05:11.250Z,99.90
2019-03-18T21:07:38.219Z,99.90
2019-03-18T21:10:14.064Z,99.90
2019-03-18T21:12:41.526Z,99.90
2019-03-18T21:15:13.697Z,99.90
2019-03-18T21:17:41.644Z,99.90
2019-03-18T21:20:26.958Z,99.90
2019-03-18T21:22:53.825Z,99.90
2019-03-18T21:25:20.630Z,99.90
2019-03-18T21:27:47.414Z,99.90
2019-03-18T21:30:16.760Z,99.90
2019-03-18T21:32:44.758Z,99.90
2019-03-18T21:35:11.607Z,99.90
2019-03-18T21:37:38.332Z,99.90
2019-03-18T21:40:08.929Z,99.90
2019-03-18T21:42:37.528Z,99.90
2019-03-18T21:45:07.784Z,99.90
2019-03-18T21:47:34.435Z,99.90
2019-03-18T21:50:04.003Z,99.90
2019-03-18T21:52:32.645Z,99.90
2019-03-18T21:54:59.329Z,99.90
2019-03-18T21:57:26.115Z,99.90
2019-03-18T21:59:53.425Z,99.90
2019-03-18T22:02:20.268Z,99.90
2019-03-18T22:04:46.918Z,99.90
2019-03-18T22:07:13.975Z,99.90
2019-03-18T22:09:40.724Z,99.90
2019-03-18T22:12:07.325Z,99.90
2019-03-18T22:14:34.203Z,99.90
2019-03-18T22:17:01.118Z,99.90
2019-03-18T22:19:27.989Z,99.90
2019-03-18T22:21:54.735Z,99.90
2019-03-18T22:24:21.448Z,99.90
2019-03-18T22:26:48.832Z,99.90
2019-03-18T22:29:15.837Z,99.90
2019-03-18T22:31:43.114Z,99.90
2019-03-18T22:34:10.015Z,99.90
2019-03-18T22:36:36.876Z,99.90
2019-03-18T22:39:06.219Z,99.90
2019-03-18T22:41:32.934Z,99.90
2019-03-18T22:43:59.742Z,99.90
2019-03-18T22:46:26.388Z,99.90
2019-03-18T22:48:53.088Z,99.90
2019-03-18T22:51:20.111Z,99.90
2019-03-18T22:53:46.731Z,99.90
2019-03-18T22:56:13.384Z,99.90
2019-03-18T22:58:40.106Z,99.90
2019-03-18T23:01:08.724Z,99.90
2019-03-18T23:03:35.488Z,99.90
2019-03-18T23:06:02.633Z,99.90
2019-03-18T23:08:29.270Z,99.90
2019-03-18T23:10:56.244Z,99.90
2019-03-18T23:13:23.067Z,99.90
2019-03-18T23:15:49.635Z,99.90
2019-03-18T23:18:16.287Z,99.90
2019-03-18T23:20:42.909Z,99.90
2019-03-18T23:23:09.677Z,99.90
2019-03-18T23:25:36.426Z,99.90
2019-03-18T23:28:03.259Z,99.90
2019-03-18T23:30:30.197Z,99.90
2019-03-18T23:32:57.072Z,99.90
2019-03-18T23:35:23.888Z,99.90
2019-03-18T23:37:50.622Z,99.90
2019-03-18T23:40:17.472Z,99.90
2019-03-18T23:42:44.116Z,99.90
2019-03-18T23:45:11.137Z,99.90
2019-03-18T23:47:37.659Z,99.90
2019-03-18T23:50:07.914Z,99.90
2019-03-18T23:52:34.482Z,99.90
2019-03-18T23:55:01.357Z,99.90
2019-03-18T23:57:27.968Z,99.90
2019-03-18T23:59:54.454Z,99.90
